Time;durP1;ratioP1;P1;durP2;ratioP2;P2;SDS_P1;SDS_P2;PMS_P1;PMS_P2;Temp;Humidity;BMP_temperature;BMP_pressure;BME280_temperature;BME280_humidity;BME280_pressure;Samples;Min_cycle;Max_cycle;Signal;HPM_P1;HPM_P2
2022/03/18 00:01:20;;;;;;;8.47;4.57;;;7.60;99.90;;;8.59;100.00;-20019.47;5094279;28;20239;-54
2022/03/18 00:03:48;;;;;;;7.30;3.93;;;7.60;99.90;;;8.55;100.00;-20018.09;5094189;28;20293;-53
2022/03/18 00:06:17;;;;;;;8.90;4.03;;;7.60;99.90;;;8.28;100.00;-20008.69;5094309;28;20196;-53
2022/03/18 00:08:49;;;;;;;7.63;3.63;;;7.60;99.90;;;8.29;100.00;-20009.03;5094709;28;20492;-54
2022/03/18 00:11:16;;;;;;;6.67;3.90;;;7.50;99.90;;;8.30;100.00;-20009.38;5093978;28;20224;-53
2022/03/18 00:13:44;;;;;;;8.40;4.07;;;7.50;99.90;;;8.49;100.00;-20016.03;5093261;28;20224;-53
2022/03/18 00:16:12;;;;;;;6.87;3.83;;;7.50;99.90;;;8.63;100.00;-20020.81;5093895;28;20232;-52
2022/03/18 00:18:40;;;;;;;8.87;3.90;;;7.60;99.90;;;8.63;100.00;-20020.66;5093932;28;20281;-54
2022/03/18 00:21:08;;;;;;;6.87;3.97;;;7.60;99.90;;;8.49;100.00;-20016.03;5094087;28;20822;-53
2022/03/18 00:23:36;;;;;;;5.97;3.70;;;7.60;99.90;;;8.35;100.00;-20011.09;5093265;28;20230;-54
2022/03/18 00:26:06;;;;;;;12.27;6.03;;;7.50;99.90;;;8.47;100.00;-20015.19;5093681;28;20656;-55
2022/03/18 00:28:34;;;;;;;7.80;4.00;;;7.50;99.90;;;8.44;100.00;-20014.16;5093247;28;20378;-54
2022/03/18 00:31:03;;;;;;;6.87;3.70;;;7.50;99.90;;;8.33;100.00;-20010.41;5093748;28;20246;-55
2022/03/18 00:33:31;;;;;;;9.63;4.20;;;7.50;99.90;;;8.29;100.00;-20009.03;5093362;28;20200;-55
2022/03/18 00:35:59;;;;;;;10.80;3.77;;;7.40;99.90;;;8.34;100.00;-20010.75;5094345;28;20279;-57
2022/03/18 00:38:27;;;;;;;10.40;3.80;;;7.40;99.90;;;8.21;100.00;-20006.28;5093233;28;20247;-56
2022/03/18 00:40:56;;;;;;;5.20;3.33;;;7.40;99.90;;;8.05;100.00;-20000.84;5093202;28;20679;-55
2022/03/18 00:43:25;;;;;;;10.07;4.03;;;7.30;99.90;;;8.17;100.00;-20004.94;5093457;28;20602;-54
2022/03/18 00:45:53;;;;;;;9.67;3.70;;;7.30;99.90;;;8.30;100.00;-20009.38;5093396;28;20511;-52
2022/03/18 00:53:48;;;;;;;8.60;3.57;;;7.40;99.90;;;8.28;100.00;-20008.69;5093212;28;20271;-56
2022/03/18 00:56:16;;;;;;;9.33;3.80;;;7.40;99.90;;;8.02;100.00;-19999.81;5093253;28;20242;-52
2022/03/18 00:58:46;;;;;;;6.17;3.70;;;7.20;99.90;;;8.11;100.00;-20002.88;5092936;28;20979;-55
2022/03/18 01:01:14;;;;;;;6.60;3.43;;;7.30;99.90;;;8.08;100.00;-20002.03;5092946;28;20231;-55
2022/03/18 01:03:42;;;;;;;6.53;3.70;;;7.20;99.90;;;8.26;100.00;-20008.00;5093082;28;20244;-54
2022/03/18 01:06:10;;;;;;;7.53;3.57;;;7.20;99.90;;;8.09;100.00;-20002.38;5093714;28;20291;-55
2022/03/18 01:08:38;;;;;;;8.00;3.43;;;7.30;99.90;;;8.14;100.00;-20004.06;5092656;28;20285;-55
2022/03/18 01:11:06;;;;;;;9.50;3.93;;;7.20;99.90;;;8.10;100.00;-20002.72;5092764;28;20243;-56
2022/03/18 01:13:34;;;;;;;6.43;3.63;;;7.20;99.90;;;8.05;100.00;-20001.00;5092608;28;20220;-55
2022/03/18 01:16:04;;;;;;;11.90;3.90;;;7.20;99.90;;;7.97;100.00;-19998.25;5092843;28;20310;-57
2022/03/18 01:18:32;;;;;;;7.53;3.60;;;7.20;99.90;;;7.94;100.00;-19997.06;5092093;28;20223;-55
2022/03/18 01:21:00;;;;;;;7.97;3.87;;;7.10;99.90;;;8.24;100.00;-20007.31;5092928;28;20663;-54
2022/03/18 01:23:28;;;;;;;8.20;4.10;;;7.20;99.90;;;8.27;100.00;-20008.34;5092516;28;20226;-55
2022/03/18 01:25:56;;;;;;;8.40;3.93;;;7.20;99.90;;;8.18;100.00;-20005.44;5092679;28;20231;-57
2022/03/18 01:28:24;;;;;;;10.80;3.90;;;7.20;99.90;;;8.07;100.00;-20001.69;5092773;28;20228;-57
2022/03/18 01:30:52;;;;;;;7.37;4.03;;;7.20;99.90;;;8.04;100.00;-20000.47;5092804;28;20315;-54
2022/03/18 01:33:22;;;;;;;8.03;4.00;;;7.10;99.90;;;8.21;100.00;-20006.28;5092923;28;20257;-55
2022/03/18 01:35:50;;;;;;;6.20;4.13;;;7.10;99.90;;;8.22;100.00;-20006.63;5092775;28;20766;-55
2022/03/18 01:38:18;;;;;;;10.50;4.10;;;7.20;99.90;;;8.02;100.00;-19999.97;5092662;28;20329;-55
2022/03/18 01:40:46;;;;;;;9.63;3.70;;;7.10;99.90;;;7.88;100.00;-19995.03;5092462;28;20365;-56
2022/03/18 01:43:14;;;;;;;8.27;3.60;;;7.10;99.90;;;7.79;100.00;-19992.13;5092271;28;20723;-54
2022/03/18 01:45:42;;;;;;;7.17;4.17;;;7.00;99.90;;;7.99;100.00;-19998.94;5092299;28;20237;-52
2022/03/18 01:48:09;;;;;;;11.00;4.23;;;7.00;99.90;;;7.91;100.00;-19996.22;5092498;28;20210;-53
2022/03/18 01:50:40;;;;;;;6.87;3.53;;;7.00;99.90;;;8.09;100.00;-20002.38;5091861;28;20233;-57
2022/03/18 01:53:10;;;;;;;11.37;3.70;;;7.00;99.90;;;8.11;100.00;-20003.06;5092582;28;20231;-50
2022/03/18 01:55:38;;;;;;;6.57;3.83;;;7.10;99.90;;;7.88;100.00;-19995.19;5091908;28;20574;-56
2022/03/18 01:58:06;;;;;;;9.33;3.27;;;7.10;99.90;;;7.79;100.00;-19992.13;5091151;28;20726;-53
2022/03/18 02:00:34;;;;;;;11.10;4.27;;;7.00;99.90;;;8.05;100.00;-20000.84;5091718;28;20236;-54
2022/03/18 02:03:03;;;;;;;11.77;4.67;;;7.10;99.90;;;7.90;100.00;-19995.88;5092455;28;20557;-56
2022/03/18 02:05:31;;;;;;;8.67;3.90;;;7.00;99.90;;;8.00;100.00;-19999.13;5091513;28;20231;-56
2022/03/18 02:08:06;;;;;;;8.47;3.83;;;7.00;99.90;;;7.83;100.00;-19993.31;5092004;28;20712;-55
2022/03/18 02:10:34;;;;;;;8.80;4.10;;;7.00;99.90;;;7.92;100.00;-19996.38;5091661;28;20663;-53
2022/03/18 02:13:02;;;;;;;8.47;3.80;;;7.00;99.90;;;7.87;100.00;-19994.84;5091649;28;20306;-55
2022/03/18 02:15:31;;;;;;;8.93;3.77;;;7.00;99.90;;;7.84;100.00;-19993.66;5091842;28;20295;-57
2022/03/18 02:17:59;;;;;;;7.70;3.47;;;7.00;99.90;;;7.85;100.00;-19994.16;5092340;28;20205;-56
2022/03/18 02:20:27;;;;;;;7.83;3.90;;;7.00;99.90;;;8.00;100.00;-19999.28;5090840;28;20250;-55
2022/03/18 02:22:56;;;;;;;10.50;4.40;;;7.00;99.90;;;7.86;100.00;-19994.50;5091694;28;20251;-57
2022/03/18 02:25:25;;;;;;;5.97;3.50;;;7.00;99.90;;;7.95;100.00;-19997.41;5091475;28;20253;-53
2022/03/18 02:27:58;;;;;;;7.10;3.60;;;7.00;99.90;;;7.91;100.00;-19996.03;5091585;28;20315;-56
2022/03/18 02:30:30;;;;;;;8.20;3.90;;;7.00;99.90;;;8.15;100.00;-20004.41;5091332;28;20184;-57
2022/03/18 02:32:58;;;;;;;8.43;4.00;;;7.10;99.90;;;8.02;100.00;-19999.81;5092082;28;20181;-55
2022/03/18 02:35:28;;;;;;;9.63;3.80;;;7.00;99.90;;;7.89;100.00;-19995.34;5091186;28;20606;-54
2022/03/18 02:38:00;;;;;;;8.47;4.10;;;7.00;99.90;;;7.91;100.00;-19996.03;5091437;28;20232;-55
2022/03/18 02:40:29;;;;;;;11.33;3.60;;;7.00;99.90;;;7.90;100.00;-19995.72;5091250;28;20222;-52
2022/03/18 02:42:58;;;;;;;7.37;4.03;;;7.00;99.90;;;7.94;100.00;-19997.06;5090900;28;20227;-55
2022/03/18 02:45:27;;;;;;;10.63;3.40;;;7.00;99.90;;;7.87;100.00;-19994.69;5091471;28;20773;-57
2022/03/18 02:47:55;;;;;;;9.60;3.73;;;7.00;99.90;;;7.91;100.00;-19996.22;5091775;28;20204;-56
2022/03/18 02:50:23;;;;;;;9.00;3.77;;;7.00;99.90;;;7.79;100.00;-19992.13;5090152;28;20296;-56
2022/03/18 02:52:51;;;;;;;6.27;3.37;;;7.00;99.90;;;7.88;100.00;-19995.03;5091202;28;20219;-57
2022/03/18 02:55:21;;;;;;;6.07;3.37;;;7.00;99.90;;;7.84;100.00;-19993.66;5091361;28;20258;-56
2022/03/18 02:57:49;;;;;;;7.77;3.90;;;7.00;99.90;;;7.78;100.00;-19991.59;5090972;28;20319;-55
2022/03/18 03:00:17;;;;;;;9.37;4.07;;;6.90;99.90;;;7.92;100.00;-19996.38;5090695;28;20719;-58
2022/03/18 03:02:45;;;;;;;12.40;3.47;;;7.00;99.90;;;7.87;100.00;-19994.69;5091111;28;20331;-54
2022/03/18 03:08:02;;;;;;;5.83;3.20;;;6.90;99.90;;;7.79;100.00;-19992.13;5090874;28;20766;-55
2022/03/18 03:10:36;;;;;;;7.03;3.07;;;6.90;99.90;;;7.83;100.00;-19993.31;5090756;28;20219;-55
2022/03/18 03:13:10;;;;;;;8.50;2.97;;;6.90;99.90;;;7.77;100.00;-19991.25;5090396;28;20228;-54
2022/03/18 03:15:39;;;;;;;9.00;3.53;;;6.80;99.90;;;7.57;100.00;-19984.44;5091211;28;20214;-53
2022/03/18 03:18:08;;;;;;;7.10;2.93;;;6.80;99.90;;;7.67;100.00;-19987.84;5091261;28;20609;-57
2022/03/18 03:20:36;;;;;;;9.80;3.47;;;6.80;99.90;;;7.69;100.00;-19988.53;5090500;28;20274;-56
2022/03/18 03:23:04;;;;;;;6.73;2.70;;;6.80;99.90;;;7.95;100.00;-19997.59;5090595;28;20232;-54
2022/03/18 03:25:34;;;;;;;11.33;3.17;;;6.80;99.90;;;7.81;100.00;-19992.63;5090838;28;20231;-57
2022/03/18 03:28:02;;;;;;;8.90;2.97;;;6.90;99.90;;;7.73;100.00;-19990.06;5090792;28;20223;-53
2022/03/18 03:30:30;;;;;;;9.03;3.43;;;6.90;99.90;;;7.70;100.00;-19988.88;5091239;28;20226;-57
2022/03/18 03:32:58;;;;;;;7.90;2.87;;;6.80;99.90;;;7.78;100.00;-19991.59;5091471;28;20671;-52
2022/03/18 03:35:26;;;;;;;9.90;2.93;;;6.80;99.90;;;7.61;100.00;-19985.97;5090941;28;20582;-55
2022/03/18 03:37:54;;;;;;;10.43;2.90;;;6.80;99.90;;;7.67;100.00;-19987.84;5090744;28;20236;-54
2022/03/18 03:40:24;;;;;;;11.20;2.87;;;6.80;99.90;;;7.51;100.00;-19982.53;5090759;28;20258;-56
2022/03/18 03:42:53;;;;;;;11.27;3.50;;;6.70;99.90;;;7.67;100.00;-19988.00;5090617;28;20712;-56
2022/03/18 03:45:22;;;;;;;12.07;3.30;;;6.70;99.90;;;7.78;100.00;-19991.78;5090878;28;20713;-55
2022/03/18 03:47:51;;;;;;;9.00;2.83;;;6.80;99.90;;;7.52;100.00;-19982.72;5091158;28;20203;-54
2022/03/18 03:50:19;;;;;;;6.00;3.00;;;6.70;99.90;;;7.42;100.00;-19979.47;5090513;28;20232;-54
2022/03/18 03:52:47;;;;;;;10.03;2.93;;;6.60;99.90;;;7.60;100.00;-19985.63;5090467;28;20222;-55
2022/03/18 03:55:15;;;;;;;7.57;2.80;;;6.70;99.90;;;7.68;100.00;-19988.34;5090728;28;20278;-54
2022/03/18 03:57:43;;;;;;;7.87;3.00;;;6.70;99.90;;;7.60;100.00;-19985.44;5090169;28;20242;-55
2022/03/18 04:00:15;;;;;;;6.63;2.70;;;6.70;99.90;;;7.51;100.00;-19982.38;5091491;28;20203;-55
2022/03/18 04:02:43;;;;;;;8.07;2.80;;;6.60;99.90;;;7.56;100.00;-19984.25;5087578;28;20232;-55
2022/03/18 04:05:12;;;;;;;10.47;2.83;;;6.70;99.90;;;7.64;100.00;-19987.00;5090578;28;20231;-56
2022/03/18 04:07:44;;;;;;;10.87;3.13;;;6.70;99.90;;;7.44;100.00;-19980.31;5090265;28;20323;-57
2022/03/18 04:10:14;;;;;;;9.53;2.97;;;6.60;99.90;;;7.75;100.00;-19990.56;5090374;28;20230;-57
2022/03/18 04:12:43;;;;;;;12.83;3.23;;;6.70;99.90;;;7.53;100.00;-19983.22;5089927;28;20594;-58
2022/03/18 04:15:13;;;;;;;10.33;3.27;;;6.60;99.90;;;7.52;100.00;-19982.72;5091180;28;20201;-54
2022/03/18 04:17:43;;;;;;;9.77;2.97;;;6.60;99.90;;;7.42;100.00;-19979.47;5090213;28;20308;-55
2022/03/18 04:20:13;;;;;;;10.23;2.77;;;6.60;99.90;;;7.30;100.00;-19975.38;5090067;28;20230;-56
2022/03/18 04:22:42;;;;;;;10.77;3.10;;;6.50;99.90;;;7.26;100.00;-19974.19;5092258;28;20761;-56
2022/03/18 04:25:11;;;;;;;6.73;2.80;;;6.50;99.90;;;7.42;100.00;-19979.63;5094190;28;20309;-55
2022/03/18 04:27:40;;;;;;;14.13;3.97;;;6.50;99.90;;;7.41;100.00;-19979.13;5093403;28;20285;-57
2022/03/18 04:30:12;;;;;;;6.93;3.13;;;6.50;99.90;;;7.24;100.00;-19973.50;5094435;28;20302;-56
2022/03/18 04:32:42;;;;;;;14.13;3.00;;;6.40;99.90;;;7.28;100.00;-19974.84;5093966;28;20199;-56
2022/03/18 04:35:11;;;;;;;9.60;3.30;;;6.40;99.90;;;7.56;100.00;-19984.09;5093762;28;20251;-56
2022/03/18 04:37:41;;;;;;;10.03;3.17;;;6.50;99.90;;;7.29;100.00;-19975.19;5093435;28;20287;-58
2022/03/18 04:40:11;;;;;;;9.77;3.43;;;6.40;99.90;;;7.27;100.00;-19974.50;5093532;28;20237;-57
2022/03/18 04:42:40;;;;;;;12.07;2.93;;;6.40;99.90;;;7.33;100.00;-19976.56;5093287;28;20330;-55
2022/03/18 04:45:10;;;;;;;11.63;3.17;;;6.40;99.90;;;7.35;100.00;-19977.06;5094060;28;20203;-56
2022/03/18 04:47:38;;;;;;;9.03;3.07;;;6.40;99.90;;;7.22;100.00;-19972.81;5093187;28;20307;-56
2022/03/18 04:50:10;;;;;;;13.67;4.37;;;6.30;99.90;;;7.25;100.00;-19973.84;5093049;28;20232;-57
2022/03/18 04:52:38;;;;;;;12.33;3.03;;;6.30;99.90;;;7.24;100.00;-19973.31;5093273;28;20237;-53
2022/03/18 04:55:08;;;;;;;8.47;3.13;;;6.30;99.90;;;7.08;100.00;-19967.84;5093172;28;20230;-56
2022/03/18 04:57:36;;;;;;;11.63;3.27;;;6.30;99.90;;;7.20;100.00;-19972.13;5093317;28;20291;-55
2022/03/18 05:00:07;;;;;;;9.77;3.17;;;6.20;99.90;;;7.05;100.00;-19967.00;5093679;28;20229;-56
2022/03/18 05:02:36;;;;;;;8.80;2.97;;;6.20;99.90;;;7.18;100.00;-19971.44;5092828;28;20714;-54
2022/03/18 05:05:10;;;;;;;10.57;3.17;;;6.20;99.90;;;7.27;100.00;-19974.50;5092793;28;20233;-56
2022/03/18 05:07:39;;;;;;;12.20;3.67;;;6.30;99.90;;;7.13;100.00;-19969.56;5092956;28;20233;-57
2022/03/18 05:10:09;;;;;;;7.07;2.97;;;6.20;99.90;;;7.15;100.00;-19970.25;5092735;28;20641;-57
2022/03/18 05:12:37;;;;;;;14.13;3.37;;;6.20;99.90;;;7.23;100.00;-19973.16;5092602;28;20254;-56
2022/03/18 05:15:09;;;;;;;10.37;3.00;;;6.20;99.90;;;6.94;100.00;-19963.06;5093735;28;20546;-54
2022/03/18 05:17:38;;;;;;;12.87;3.37;;;6.10;99.90;;;7.13;100.00;-19969.72;5092535;28;20234;-55
2022/03/18 05:20:12;;;;;;;8.03;3.17;;;6.10;99.90;;;6.97;100.00;-19964.25;5091838;28;20230;-56
2022/03/18 05:22:40;;;;;;;8.73;3.33;;;6.10;99.90;;;6.79;100.00;-19958.13;5092784;28;20252;-53
2022/03/18 05:25:09;;;;;;;10.17;3.20;;;6.00;99.90;;;6.82;100.00;-19959.13;5092634;28;20234;-56
2022/03/18 05:27:40;;;;;;;7.87;3.73;;;6.00;99.90;;;7.03;100.00;-19966.16;5092665;28;20719;-54
2022/03/18 05:30:11;;;;;;;10.37;3.40;;;6.00;99.90;;;6.87;100.00;-19960.66;5093055;28;20187;-56
2022/03/18 05:32:40;;;;;;;9.60;2.80;;;6.00;99.90;;;6.87;100.00;-19960.84;5092249;28;20705;-56
2022/03/18 05:35:11;;;;;;;6.30;3.03;;;5.90;99.90;;;6.67;100.00;-19954.00;5092314;28;20226;-56
2022/03/18 05:37:39;;;;;;;9.87;3.00;;;6.00;99.90;;;6.77;100.00;-19957.25;5092924;28;20262;-57
2022/03/18 05:40:10;;;;;;;10.70;3.50;;;5.90;99.90;;;7.01;100.00;-19965.47;5092425;28;20225;-54
2022/03/18 05:42:38;;;;;;;9.60;3.33;;;6.00;99.90;;;6.96;100.00;-19963.91;5092273;28;20632;-54
2022/03/18 05:45:07;;;;;;;11.70;3.57;;;6.00;99.90;;;6.83;100.00;-19959.47;5092710;28;20236;-56
2022/03/18 05:47:35;;;;;;;12.97;4.20;;;5.90;99.90;;;6.84;100.00;-19959.81;5092078;28;20672;-56
2022/03/18 05:50:08;;;;;;;9.00;3.70;;;5.90;99.90;;;6.92;100.00;-19962.38;5091693;28;20589;-57
2022/03/18 05:52:37;;;;;;;13.73;3.43;;;5.90;99.90;;;6.84;100.00;-19959.81;5092226;28;20317;-54
2022/03/18 05:55:07;;;;;;;9.80;3.07;;;5.90;99.90;;;6.79;100.00;-19958.13;5091922;28;20798;-57
2022/03/18 05:57:34;;;;;;;7.70;3.33;;;5.90;99.90;;;6.83;100.00;-19959.31;5092177;28;20481;-56
2022/03/18 06:00:03;;;;;;;10.07;3.50;;;5.90;99.90;;;6.80;100.00;-19958.28;5092610;28;20302;-57
2022/03/18 06:02:33;;;;;;;13.20;3.57;;;5.90;99.90;;;6.88;100.00;-19961.00;5091678;28;20222;-55
2022/03/18 06:05:02;;;;;;;7.73;2.83;;;5.90;99.90;;;6.88;100.00;-19961.19;5091792;28;20222;-56
2022/03/18 06:07:30;;;;;;;7.93;2.97;;;5.90;99.90;;;6.72;100.00;-19955.72;5092109;28;20310;-57
2022/03/18 06:12:50;;;;;;;7.47;3.00;;;5.80;99.90;;;6.80;100.00;-19958.44;5091666;28;20235;-55
2022/03/18 06:15:18;;;;;;;9.77;3.87;;;5.80;99.90;;;6.76;100.00;-19957.09;5091538;28;20194;-54
2022/03/18 06:17:46;;;;;;;11.57;3.10;;;5.80;99.90;;;6.61;100.00;-19951.97;5092569;28;20294;-57
2022/03/18 06:20:14;;;;;;;14.80;3.50;;;5.80;99.90;;;6.84;100.00;-19959.66;5091126;28;20725;-58
2022/03/18 06:22:42;;;;;;;5.83;3.00;;;5.80;99.90;;;6.76;100.00;-19956.91;5090857;28;20231;-58
2022/03/18 06:25:12;;;;;;;10.67;3.10;;;5.80;99.90;;;6.78;100.00;-19957.75;5091027;28;20289;-57
2022/03/18 06:27:40;;;;;;;11.10;3.60;;;5.80;99.90;;;6.74;100.00;-19956.41;5091395;28;20259;-55
2022/03/18 06:30:08;;;;;;;9.73;3.40;;;5.80;99.90;;;6.80;100.00;-19958.28;5092019;28;20203;-55
2022/03/18 06:32:36;;;;;;;11.10;3.53;;;5.80;99.90;;;6.75;100.00;-19956.56;5090322;28;20431;-55
2022/03/18 06:35:05;;;;;;;8.00;3.57;;;5.80;99.90;;;6.80;100.00;-19958.44;5090033;28;20222;-57
2022/03/18 06:37:33;;;;;;;6.17;3.23;;;5.80;99.90;;;6.87;100.00;-19960.84;5090616;28;20646;-57
2022/03/18 06:40:01;;;;;;;12.03;3.97;;;5.80;99.90;;;6.71;100.00;-19955.38;5090807;28;20318;-58
2022/03/18 06:42:31;;;;;;;10.47;3.47;;;5.80;99.90;;;6.89;100.00;-19961.53;5090629;28;20207;-55
2022/03/18 06:44:58;;;;;;;8.07;3.10;;;5.80;99.90;;;6.72;100.00;-19955.72;5091064;28;20218;-55
2022/03/18 06:47:27;;;;;;;14.13;4.63;;;5.80;99.90;;;6.61;100.00;-19951.78;5091288;28;20320;-54
2022/03/18 06:49:55;;;;;;;10.33;3.30;;;5.80;99.90;;;6.67;100.00;-19953.84;5090963;28;20251;-57
2022/03/18 06:52:24;;;;;;;10.60;3.50;;;5.80;99.90;;;6.71;100.00;-19955.38;5091075;28;20312;-57
2022/03/18 06:54:52;;;;;;;7.80;3.50;;;5.70;99.90;;;6.52;100.00;-19948.72;5090896;28;20231;-54
2022/03/18 06:57:21;;;;;;;10.43;3.67;;;5.70;99.90;;;6.76;100.00;-19956.91;5090913;28;20250;-54
2022/03/18 06:59:50;;;;;;;11.13;3.83;;;5.70;99.90;;;6.72;100.00;-19955.72;5091415;28;20602;-52
2022/03/18 07:02:18;;;;;;;11.73;3.77;;;5.70;99.90;;;6.63;100.00;-19952.63;5090695;28;20319;-53
2022/03/18 07:04:46;;;;;;;8.73;3.63;;;5.70;99.90;;;6.41;100.00;-19944.94;5090425;28;20230;-57
2022/03/18 07:07:14;;;;;;;9.03;3.70;;;5.60;99.90;;;6.49;100.00;-19947.69;5091105;28;20261;-56
2022/03/18 07:09:42;;;;;;;10.03;3.87;;;5.60;99.90;;;6.72;100.00;-19955.72;5090782;28;20233;-58
2022/03/18 07:12:10;;;;;;;8.90;3.90;;;5.70;99.90;;;6.72;100.00;-19955.53;5090886;28;20211;-56
2022/03/18 07:14:38;;;;;;;11.23;3.97;;;5.70;99.90;;;6.80;100.00;-19958.44;5090804;28;20230;-56
2022/03/18 07:19:53;;;;;;;10.70;3.93;;;5.70;99.90;;;6.73;100.00;-19956.06;5069534;28;20774;-56
2022/03/18 07:22:21;;;;;;;12.07;3.97;;;5.70;99.90;;;6.80;100.00;-19958.44;5071097;28;20232;-55
2022/03/18 07:24:49;;;;;;;11.77;4.90;;;5.70;99.90;;;6.90;100.00;-19961.88;5089694;28;20254;-56
2022/03/18 07:27:17;;;;;;;10.20;4.10;;;5.80;99.90;;;7.01;100.00;-19965.63;5089027;28;20674;-58
2022/03/18 07:29:45;;;;;;;8.90;3.43;;;5.90;99.90;;;6.93;100.00;-19962.91;5089848;28;20244;-56
2022/03/18 07:32:16;;;;;;;10.27;4.63;;;5.90;99.90;;;7.07;100.00;-19967.69;5089489;28;20811;-56
2022/03/18 07:34:44;;;;;;;11.70;4.20;;;6.00;99.90;;;7.30;100.00;-19975.53;5089378;28;20223;-59
2022/03/18 07:37:12;;;;;;;8.67;3.70;;;6.10;99.90;;;7.33;100.00;-19976.41;5087230;28;20323;-55
2022/03/18 07:39:40;;;;;;;13.23;3.77;;;6.10;99.90;;;7.34;100.00;-19976.72;5089670;28;20250;-60
2022/03/18 07:42:08;;;;;;;9.90;4.07;;;6.20;99.90;;;7.52;100.00;-19982.88;5090468;28;20298;-56
2022/03/18 07:44:36;;;;;;;9.33;3.83;;;6.40;99.90;;;7.66;100.00;-19987.50;5088078;28;20226;-56
2022/03/18 07:47:05;;;;;;;12.33;4.27;;;6.50;99.90;;;7.70;100.00;-19989.03;5090541;28;20223;-57
2022/03/18 07:49:34;;;;;;;14.70;3.70;;;6.60;99.90;;;7.67;100.00;-19987.84;5090401;28;20214;-55
2022/03/18 07:52:02;;;;;;;9.50;4.03;;;6.50;99.90;;;7.78;100.00;-19991.78;5090662;28;20319;-56
2022/03/18 07:54:30;;;;;;;10.70;3.47;;;6.60;99.90;;;7.81;100.00;-19992.63;5091355;28;20284;-53
2022/03/18 07:56:58;;;;;;;10.70;3.93;;;6.60;99.90;;;7.89;100.00;-19995.34;5092814;28;20202;-54
2022/03/18 07:59:26;;;;;;;10.80;4.30;;;6.70;99.90;;;7.77;100.00;-19991.44;5095082;28;20298;-55
2022/03/18 08:01:53;;;;;;;11.10;4.13;;;6.70;99.90;;;7.77;100.00;-19991.44;5094695;28;20639;-57
2022/03/18 08:04:21;;;;;;;9.00;3.90;;;6.70;99.90;;;7.70;100.00;-19989.03;5094359;28;20686;-55
2022/03/18 08:06:51;;;;;;;11.73;3.73;;;6.70;99.90;;;7.77;100.00;-19991.25;5093822;28;20299;-56
2022/03/18 08:09:19;;;;;;;13.40;4.27;;;6.60;99.90;;;7.70;100.00;-19989.03;5093550;28;20341;-55
2022/03/18 08:11:48;;;;;;;13.53;3.73;;;6.60;99.90;;;7.56;100.00;-19984.25;5093678;28;20199;-57
2022/03/18 08:14:17;;;;;;;7.73;3.63;;;6.60;99.90;;;7.53;100.00;-19983.22;5088327;28;20758;-55
2022/03/18 08:16:45;;;;;;;11.03;3.60;;;6.60;99.90;;;7.67;100.00;-19988.00;5093202;28;20282;-55
2022/03/18 08:19:13;;;;;;;13.10;4.20;;;6.60;99.90;;;7.82;100.00;-19993.13;5093541;28;20741;-57
2022/03/18 08:21:42;;;;;;;8.33;3.43;;;6.70;99.90;;;7.77;100.00;-19991.44;5094742;28;20314;-55
2022/03/18 08:24:11;;;;;;;9.50;3.40;;;6.70;99.90;;;7.78;100.00;-19991.78;5095034;28;20255;-54
2022/03/18 08:26:39;;;;;;;10.23;4.40;;;6.70;99.90;;;7.68;100.00;-19988.34;5091167;28;20305;-57
2022/03/18 08:29:08;;;;;;;8.17;3.97;;;6.70;99.90;;;8.04;100.00;-20000.66;5094552;28;20253;-55
2022/03/18 08:31:36;;;;;;;12.07;7.53;;;6.90;99.90;;;7.94;100.00;-19997.06;5094313;28;20231;-55
2022/03/18 08:34:04;;;;;;;12.00;4.10;;;6.90;99.90;;;8.05;100.00;-20000.84;5090698;28;20231;-58
2022/03/18 08:36:32;;;;;;;9.03;4.00;;;6.90;99.90;;;8.29;100.00;-20009.03;5094033;28;20291;-55
2022/03/18 08:39:01;;;;;;;9.13;3.53;;;7.00;99.90;;;8.45;100.00;-20014.69;5095268;28;20211;-57
2022/03/18 08:41:35;;;;;;;9.13;3.27;;;7.10;99.90;;;8.55;100.00;-20018.09;5094258;28;20552;-55
2022/03/18 08:44:03;;;;;;;7.20;3.70;;;7.20;99.90;;;8.72;100.00;-20023.56;5094206;28;20220;-55
2022/03/18 08:46:33;;;;;;;8.27;3.83;;;7.40;99.90;;;8.59;100.00;-20019.47;5094319;28;20252;-56
2022/03/18 08:49:01;;;;;;;9.37;3.80;;;7.40;99.90;;;8.57;100.00;-20018.59;5094111;28;20228;-55
2022/03/18 08:51:30;;;;;;;13.03;5.20;;;7.50;99.90;;;8.67;100.00;-20021.84;5093977;28;20231;-56
2022/03/18 08:53:58;;;;;;;13.90;4.97;;;7.50;99.90;;;8.82;100.00;-20026.97;5094728;28;20552;-58
2022/03/18 08:56:26;;;;;;;15.43;5.47;;;7.60;99.90;;;9.03;100.00;-20034.16;5093809;28;20304;-59
2022/03/18 08:58:55;;;;;;;14.47;3.97;;;7.70;99.90;;;9.12;100.00;-20037.22;5093206;28;20223;-52
2022/03/18 09:01:25;;;;;;;12.57;3.60;;;7.80;99.90;;;9.10;100.00;-20036.72;5091706;28;20410;-56
2022/03/18 09:03:53;;;;;;;8.37;3.27;;;7.90;99.90;;;9.07;100.00;-20035.69;5092368;28;20224;-55
2022/03/18 09:06:21;;;;;;;13.17;3.23;;;7.90;99.90;;;8.99;100.00;-20032.97;5093255;28;20228;-57
2022/03/18 09:08:49;;;;;;;11.03;3.83;;;7.90;99.90;;;9.22;100.00;-20040.63;5093591;28;20199;-56
2022/03/18 09:11:17;;;;;;;10.23;3.60;;;8.00;99.90;;;9.36;100.00;-20045.41;5092824;28;20243;-60
2022/03/18 09:13:45;;;;;;;13.37;3.90;;;8.10;99.90;;;9.23;100.00;-20040.97;5091949;28;20248;-57
2022/03/18 09:16:15;;;;;;;10.47;3.23;;;8.10;99.90;;;9.25;100.00;-20041.84;5092641;28;20267;-56
2022/03/18 09:19:00;;;;;;;10.20;3.17;;;8.10;99.90;;;9.28;100.00;-20042.69;5092462;28;20227;-61
2022/03/18 09:21:28;;;;;;;11.83;3.40;;;8.10;99.90;;;9.39;100.00;-20046.63;5092410;28;20286;-62
2022/03/18 09:23:57;;;;;;;11.30;3.50;;;8.20;99.90;;;9.51;100.00;-20050.72;5092390;28;20232;-60
2022/03/18 09:26:25;;;;;;;10.33;3.53;;;8.30;99.90;;;9.46;100.00;-20049.00;5092240;28;20623;-62
2022/03/18 09:28:53;;;;;;;9.67;3.50;;;8.30;99.90;;;9.42;100.00;-20047.66;5092025;28;20307;-59
2022/03/18 09:31:23;;;;;;;10.37;3.67;;;8.30;99.90;;;9.55;100.00;-20051.91;5092037;28;20224;-56
2022/03/18 09:33:51;;;;;;;14.10;4.13;;;8.40;99.90;;;9.55;100.00;-20052.09;5091792;28;20224;-56
2022/03/18 09:36:19;;;;;;;13.87;3.60;;;8.40;99.90;;;9.70;100.00;-20057.03;5091918;28;20246;-61
2022/03/18 09:38:49;;;;;;;12.30;3.67;;;8.40;99.90;;;9.88;100.00;-20063.03;5093045;28;20651;-61
2022/03/18 09:41:18;;;;;;;7.90;3.10;;;8.60;99.90;;;10.01;100.00;-20067.63;5092052;28;20255;-59
2022/03/18 09:43:46;;;;;;;8.37;3.17;;;8.70;99.90;;;10.04;99.21;-20068.47;5091785;28;20308;-60
2022/03/18 09:46:16;;;;;;;12.57;4.67;;;8.80;99.90;;;10.22;99.83;-20074.63;5092234;28;20232;-56
2022/03/18 09:49:05;;;;;;;15.63;4.73;;;8.80;99.90;;;10.16;99.82;-20072.75;5091683;28;20239;-54
2022/03/18 09:51:33;;;;;;;9.07;3.67;;;8.90;99.90;;;10.35;99.38;-20079.25;5071670;28;20720;-56
2022/03/18 09:54:18;;;;;;;12.93;3.90;;;9.00;99.90;;;10.29;98.26;-20077.03;5071721;28;20192;-53
2022/03/18 09:56:48;;;;;;;10.90;3.63;;;9.10;99.90;;;10.38;98.75;-20080.28;5072251;28;20200;-57
2022/03/18 09:59:19;;;;;;;13.37;3.40;;;9.10;99.90;;;10.47;99.09;-20083.19;5071651;28;20263;-54
2022/03/18 10:01:47;;;;;;;12.17;3.67;;;9.20;99.90;;;10.91;96.06;-20098.38;5072283;28;20322;-57
2022/03/18 10:04:17;;;;;;;10.53;4.07;;;9.40;99.90;;;11.06;95.24;-20103.31;5071677;28;20236;-55
2022/03/18 10:06:45;;;;;;;8.67;3.83;;;9.60;99.90;;;11.15;93.69;-20106.22;5071635;28;20275;-58
2022/03/18 10:09:14;;;;;;;7.67;3.63;;;9.70;99.90;;;11.09;94.73;-20104.53;5072179;28;20618;-58
2022/03/18 10:11:44;;;;;;;11.73;4.63;;;9.60;99.90;;;11.14;93.73;-20105.91;5073468;28;20270;-57
2022/03/18 10:14:18;;;;;;;10.80;4.57;;;9.70;99.90;;;11.34;93.53;-20112.91;5091179;28;20259;-53
2022/03/18 10:16:48;;;;;;;12.80;5.17;;;9.90;99.90;;;11.64;94.04;-20123.16;5091434;28;20231;-55
2022/03/18 10:19:21;;;;;;;12.17;4.20;;;10.00;99.90;;;12.04;89.00;-20136.63;5090335;28;20219;-59
2022/03/18 10:21:55;;;;;;;10.23;4.20;;;10.40;99.90;;;12.03;88.95;-20136.47;5091571;28;20226;-56
2022/03/18 10:24:27;;;;;;;11.17;3.93;;;10.50;99.90;;;11.93;87.81;-20133.06;5091467;28;20270;-62
2022/03/18 10:27:12;;;;;;;10.97;4.00;;;10.50;99.90;;;11.93;87.09;-20132.88;5091971;28;20204;-59
2022/03/18 10:29:43;;;;;;;7.90;4.10;;;10.50;99.90;;;12.16;85.10;-20140.72;5091737;28;20283;-59
2022/03/18 10:32:13;;;;;;;7.77;3.67;;;10.60;99.90;;;11.91;86.79;-20132.19;5091153;28;20695;-56
2022/03/18 10:37:42;;;;;;;11.33;4.60;;;10.50;99.90;;;11.57;88.48;-20120.59;5090950;28;20307;-53
2022/03/18 10:40:11;;;;;;;10.53;4.03;;;10.40;99.90;;;11.64;89.32;-20123.16;5091237;28;20258;-54